aviador You're here:

PKWA Decoded Metar

KWAJALEIN in MARSHALL ISLANDS
Report Time2018-01-22 02:01:00
UTC Time2018-01-22 02:17:20
Flight Rules mvfr MVFR
Wind050° at 12 kt
W.Decomp.*RWY 06: 11.3 kt HW 3.9 kt LCW
W.Rank050° ranks 5
Current wind is above 050° avg. (11.4)
Visibility9999 m
Phenomena:N/A
Clouds:Scattered 021 Hf
Broken 029 Hf
Broken 033 Hf
Expected CloudBase > 2,400 ft AGL from Temp-Dew spread
Ceiling2,900 ft
Temp30°C (ISA +15)
Dew Point24°C (70% RH)
Heat Index35.0°C
QNH1007 hPa
Density Alt2,346 ft
Elevation26 ft
Report Wrong Elevation
Raw Report
PKWA 220201Z AUTO 05012KT 10SM SCT021 BKN029 BKN033 30/24 A2974
RMK AO2=

Extra information for PKWA:More info

Metar Taf Metar & Taf Last 4 Metars F.Rules Stats Wind Profile Meteogram Temp Stats Airport Information Weather charts Add Link Nearby VenuesMetar ALERT Operation Metar Decoded Social comments